sensor_id;sensor_type;location;lat;lon;timestamp;pressure;altitude;pressure_sealevel;temperature;humidity
78170;BME280;67412;49.892;14.490;2023-05-24T00:00:40;97332.22;;;11.14;75.46
78170;BME280;67412;49.892;14.490;2023-05-24T00:03:06;97333.13;;;11.10;76.02
78170;BME280;67412;49.892;14.490;2023-05-24T00:05:32;97316.88;;;11.08;75.48
78170;BME280;67412;49.892;14.490;2023-05-24T00:07:58;97316.16;;;11.01;75.79
78170;BME280;67412;49.892;14.490;2023-05-24T00:10:24;97325.59;;;10.99;76.01
78170;BME280;67412;49.892;14.490;2023-05-24T00:12:49;97325.66;;;10.96;76.47
78170;BME280;67412;49.892;14.490;2023-05-24T00:15:15;97323.97;;;10.94;76.42
78170;BME280;67412;49.892;14.490;2023-05-24T00:17:40;97323.94;;;10.95;75.83
78170;BME280;67412;49.892;14.490;2023-05-24T00:20:10;97322.16;;;10.99;76.42
78170;BME280;67412;49.892;14.490;2023-05-24T00:22:39;97331.69;;;10.94;76.10
78170;BME280;67412;49.892;14.490;2023-05-24T00:25:06;97330.00;;;10.91;76.26
78170;BME280;67412;49.892;14.490;2023-05-24T00:27:31;97324.06;;;10.88;76.30
78170;BME280;67412;49.892;14.490;2023-05-24T00:29:57;97321.53;;;10.85;76.26
78170;BME280;67412;49.892;14.490;2023-05-24T00:32:23;97326.69;;;10.85;76.11
78170;BME280;67412;49.892;14.490;2023-05-24T00:34:48;97334.31;;;10.89;76.13
78170;BME280;67412;49.892;14.490;2023-05-24T00:37:13;97334.34;;;10.88;76.28
78170;BME280;67412;49.892;14.490;2023-05-24T00:39:39;97334.44;;;10.83;77.13
78170;BME280;67412;49.892;14.490;2023-05-24T00:42:05;97333.38;;;10.95;76.47
78170;BME280;67412;49.892;14.490;2023-05-24T00:44:31;97340.38;;;10.87;76.86
78170;BME280;67412;49.892;14.490;2023-05-24T00:46:56;97337.81;;;10.84;76.45
78170;BME280;67412;49.892;14.490;2023-05-24T00:49:22;97343.81;;;10.84;76.11
78170;BME280;67412;49.892;14.490;2023-05-24T00:51:49;97340.38;;;10.84;76.51
78170;BME280;67412;49.892;14.490;2023-05-24T00:54:15;97343.75;;;10.87;76.42
78170;BME280;67412;49.892;14.490;2023-05-24T00:56:42;97336.97;;;10.85;76.69
78170;BME280;67412;49.892;14.490;2023-05-24T00:59:08;97342.03;;;10.88;75.80
78170;BME280;67412;49.892;14.490;2023-05-24T01:01:33;97339.53;;;10.85;76.11
78170;BME280;67412;49.892;14.490;2023-05-24T01:03:59;97340.44;;;10.81;76.56
78170;BME280;67412;49.892;14.490;2023-05-24T01:06:25;97341.25;;;10.84;76.29
78170;BME280;67412;49.892;14.490;2023-05-24T01:15:00;97343.00;;;10.82;76.07
78170;BME280;67412;49.892;14.490;2023-05-24T01:17:30;97342.31;;;10.70;76.66
78170;BME280;67412;49.892;14.490;2023-05-24T01:20:01;97338.13;;;10.64;77.10
78170;BME280;67412;49.892;14.490;2023-05-24T01:27:54;97347.63;;;10.57;76.57
78170;BME280;67412;49.892;14.490;2023-05-24T01:30:20;97348.50;;;10.56;76.38
78170;BME280;67412;49.892;14.490;2023-05-24T01:32:46;97356.28;;;10.53;76.97
78170;BME280;67412;49.892;14.490;2023-05-24T01:35:11;97352.81;;;10.54;76.81
78170;BME280;67412;49.892;14.490;2023-05-24T01:37:37;97352.84;;;10.51;77.56
78170;BME280;67412;49.892;14.490;2023-05-24T01:40:02;97351.19;;;10.47;76.79
78170;BME280;67412;49.892;14.490;2023-05-24T01:42:37;97345.34;;;10.36;76.70
78170;BME280;67412;49.892;14.490;2023-05-24T01:50:24;97352.25;;;10.33;76.98
78170;BME280;67412;49.892;14.490;2023-05-24T01:52:51;97347.16;;;10.28;76.82
78170;BME280;67412;49.892;14.490;2023-05-24T01:55:17;97358.31;;;10.26;76.61
78170;BME280;67412;49.892;14.490;2023-05-24T01:57:44;97349.81;;;10.22;76.47
78170;BME280;67412;49.892;14.490;2023-05-24T02:00:13;97355.00;;;10.16;76.49
78170;BME280;67412;49.892;14.490;2023-05-24T02:02:40;97353.28;;;10.16;76.25
78170;BME280;67412;49.892;14.490;2023-05-24T02:05:06;97358.41;;;10.18;76.12
78170;BME280;67412;49.892;14.490;2023-05-24T02:07:31;97352.44;;;10.16;76.36
78170;BME280;67412;49.892;14.490;2023-05-24T02:09:57;97356.75;;;10.15;76.49
78170;BME280;67412;49.892;14.490;2023-05-24T02:12:22;97357.56;;;10.17;76.23
78170;BME280;67412;49.892;14.490;2023-05-24T02:14:47;97361.94;;;10.08;76.38
78170;BME280;67412;49.892;14.490;2023-05-24T02:17:15;97357.63;;;10.10;76.45
78170;BME280;67412;49.892;14.490;2023-05-24T02:19:41;97362.81;;;10.05;76.27
78170;BME280;67412;49.892;14.490;2023-05-24T02:22:07;97354.19;;;10.09;76.13
78170;BME280;67412;49.892;14.490;2023-05-24T02:24:32;97356.81;;;10.06;76.32
78170;BME280;67412;49.892;14.490;2023-05-24T02:26:57;97357.72;;;10.04;76.21
78170;BME280;67412;49.892;14.490;2023-05-24T02:29:23;97357.66;;;10.07;76.42
78170;BME280;67412;49.892;14.490;2023-05-24T02:31:48;97354.28;;;10.03;76.05
78170;BME280;67412;49.892;14.490;2023-05-24T02:34:21;97358.53;;;10.07;76.11
78170;BME280;67412;49.892;14.490;2023-05-24T02:36:47;97362.91;;;9.98;76.11
78170;BME280;67412;49.892;14.490;2023-05-24T02:39:13;97362.88;;;9.99;76.22
78170;BME280;67412;49.892;14.490;2023-05-24T02:41:38;97359.50;;;9.96;75.99
78170;BME280;67412;49.892;14.490;2023-05-24T02:44:03;97358.63;;;9.98;75.73
78170;BME280;67412;49.892;14.490;2023-05-24T02:46:29;97357.00;;;9.90;75.99
78170;BME280;67412;49.892;14.490;2023-05-24T02:48:54;97363.81;;;9.91;75.88
78170;BME280;67412;49.892;14.490;2023-05-24T02:51:19;97368.19;;;9.83;76.49
78170;BME280;67412;49.892;14.490;2023-05-24T02:53:45;97363.06;;;9.84;76.57
78170;BME280;67412;49.892;14.490;2023-05-24T02:56:10;97366.44;;;9.86;75.78
78170;BME280;67412;49.892;14.490;2023-05-24T02:58:37;97367.28;;;9.87;76.34
78170;BME280;67412;49.892;14.490;2023-05-24T03:01:04;97370.75;;;9.86;76.89
78170;BME280;67412;49.892;14.490;2023-05-24T03:03:30;97370.72;;;9.87;76.30
78170;BME280;67412;49.892;14.490;2023-05-24T03:05:55;97367.34;;;9.84;75.79
78170;BME280;67412;49.892;14.490;2023-05-24T03:08:20;97373.34;;;9.80;76.21
78170;BME280;67412;49.892;14.490;2023-05-24T03:10:46;97371.59;;;9.83;75.96
78170;BME280;67412;49.892;14.490;2023-05-24T03:13:11;97375.06;;;9.79;76.25
78170;BME280;67412;49.892;14.490;2023-05-24T03:15:36;97378.53;;;9.75;76.04
78170;BME280;67412;49.892;14.490;2023-05-24T03:18:02;97383.72;;;9.70;76.54
78170;BME280;67412;49.892;14.490;2023-05-24T03:20:27;97384.59;;;9.69;76.60
78170;BME280;67412;49.892;14.490;2023-05-24T03:22:52;97381.09;;;9.77;76.31
78170;BME280;67412;49.892;14.490;2023-05-24T03:25:17;97386.28;;;9.70;76.29
78170;BME280;67412;49.892;14.490;2023-05-24T03:27:43;97387.13;;;9.71;76.25
78170;BME280;67412;49.892;14.490;2023-05-24T03:30:08;97387.16;;;9.69;76.65
78170;BME280;67412;49.892;14.490;2023-05-24T03:32:33;97397.47;;;9.60;76.79
78170;BME280;67412;49.892;14.490;2023-05-24T03:34:59;97398.25;;;9.68;76.66
78170;BME280;67412;49.892;14.490;2023-05-24T03:37:25;97392.31;;;9.65;76.57
78170;BME280;67412;49.892;14.490;2023-05-24T03:39:51;97388.03;;;9.65;76.91
78170;BME280;67412;49.892;14.490;2023-05-24T03:42:16;97392.28;;;9.69;76.39
78170;BME280;67412;49.892;14.490;2023-05-24T03:44:41;97394.84;;;9.69;76.65
78170;BME280;67412;49.892;14.490;2023-05-24T03:47:08;97395.75;;;9.64;77.22
78170;BME280;67412;49.892;14.490;2023-05-24T03:49:33;97397.41;;;9.68;76.71
78170;BME280;67412;49.892;14.490;2023-05-24T03:51:58;97404.25;;;9.67;76.50
78170;BME280;67412;49.892;14.490;2023-05-24T03:54:24;97411.94;;;9.67;76.65
78170;BME280;67412;49.892;14.490;2023-05-24T03:56:49;97405.94;;;9.73;76.58
78170;BME280;67412;49.892;14.490;2023-05-24T03:59:17;97402.50;;;9.73;77.09
78170;BME280;67412;49.892;14.490;2023-05-24T04:01:42;97409.28;;;9.81;76.04
78170;BME280;67412;49.892;14.490;2023-05-24T04:04:07;97419.69;;;9.64;77.08
78170;BME280;67412;49.892;14.490;2023-05-24T04:06:33;97415.41;;;9.66;76.85
78170;BME280;67412;49.892;14.490;2023-05-24T04:09:01;97420.56;;;9.63;76.93
78170;BME280;67412;49.892;14.490;2023-05-24T04:11:29;97413.72;;;9.62;76.85
78170;BME280;67412;49.892;14.490;2023-05-24T04:13:55;97426.53;;;9.61;77.05
78170;BME280;67412;49.892;14.490;2023-05-24T04:16:21;97416.28;;;9.62;77.06
78170;BME280;67412;49.892;14.490;2023-05-24T04:18:55;97432.47;;;9.69;76.78
78170;BME280;67412;49.892;14.490;2023-05-24T04:21:21;97425.69;;;9.63;77.05
78170;BME280;67412;49.892;14.490;2023-05-24T04:23:46;97430.75;;;9.68;76.98
78170;BME280;67412;49.892;14.490;2023-05-24T04:26:12;97429.94;;;9.66;76.49
78170;BME280;67412;49.892;14.490;2023-05-24T04:28:38;97426.53;;;9.62;77.25
78170;BME280;67412;49.892;14.490;2023-05-24T04:31:04;97423.94;;;9.67;76.96
78170;BME280;67412;49.892;14.490;2023-05-24T04:33:31;97424.75;;;9.72;76.33
78170;BME280;67412;49.892;14.490;2023-05-24T04:35:56;97422.28;;;9.61;76.66
78170;BME280;67412;49.892;14.490;2023-05-24T04:38:25;97427.38;;;9.64;76.38
78170;BME280;67412;49.892;14.490;2023-05-24T04:40:53;97429.97;;;9.60;76.93
78170;BME280;67412;49.892;14.490;2023-05-24T04:43:19;97429.00;;;9.71;76.57
78170;BME280;67412;49.892;14.490;2023-05-24T04:45:44;97429.91;;;9.70;76.18
78170;BME280;67412;49.892;14.490;2023-05-24T04:48:09;97435.03;;;9.69;77.00
78170;BME280;67412;49.892;14.490;2023-05-24T04:50:35;97435.00;;;9.74;77.26
78170;BME280;67412;49.892;14.490;2023-05-24T04:53:01;97444.38;;;9.78;75.97
78170;BME280;67412;49.892;14.490;2023-05-24T04:55:27;97431.66;;;9.65;73.77
78170;BME280;67412;49.892;14.490;2023-05-24T04:57:52;97435.94;;;9.60;74.03
78170;BME280;67412;49.892;14.490;2023-05-24T05:00:18;97430.81;;;9.63;74.45
78170;BME280;67412;49.892;14.490;2023-05-24T05:02:43;97432.44;;;9.74;73.92
78170;BME280;67412;49.892;14.490;2023-05-24T05:05:09;97433.28;;;9.74;73.58
78170;BME280;67412;49.892;14.490;2023-05-24T05:07:35;97435.00;;;9.72;73.96
78170;BME280;67412;49.892;14.490;2023-05-24T05:10:01;97432.47;;;9.70;73.71
78170;BME280;67412;49.892;14.490;2023-05-24T05:12:26;97439.25;;;9.76;73.24
78170;BME280;67412;49.892;14.490;2023-05-24T05:14:51;97435.78;;;9.79;73.82
78170;BME280;67412;49.892;14.490;2023-05-24T05:17:17;97430.63;;;9.83;73.92
78170;BME280;67412;49.892;14.490;2023-05-24T05:19:42;97433.25;;;9.77;73.37
78170;BME280;67412;49.892;14.490;2023-05-24T05:22:07;97431.56;;;9.73;73.57
78170;BME280;67412;49.892;14.490;2023-05-24T05:24:33;97440.13;;;9.74;73.29
78170;BME280;67412;49.892;14.490;2023-05-24T05:26:58;97436.72;;;9.75;73.24
78170;BME280;67412;49.892;14.490;2023-05-24T05:29:24;97429.91;;;9.69;73.10
78170;BME280;67412;49.892;14.490;2023-05-24T05:31:50;97436.78;;;9.67;73.08
78170;BME280;67412;49.892;14.490;2023-05-24T05:34:15;97441.13;;;9.57;73.89
78170;BME280;67412;49.892;14.490;2023-05-24T05:36:40;97437.59;;;9.67;72.85
78170;BME280;67412;49.892;14.490;2023-05-24T05:39:07;97437.63;;;9.66;73.27
78170;BME280;67412;49.892;14.490;2023-05-24T05:41:37;97445.34;;;9.63;73.31
78170;BME280;67412;49.892;14.490;2023-05-24T05:44:03;97447.09;;;9.56;73.54
78170;BME280;67412;49.892;14.490;2023-05-24T05:46:28;97445.31;;;9.64;73.84
78170;BME280;67412;49.892;14.490;2023-05-24T05:48:53;97442.75;;;9.64;73.65
78170;BME280;67412;49.892;14.490;2023-05-24T05:51:19;97449.63;;;9.62;73.59
78170;BME280;67412;49.892;14.490;2023-05-24T05:53:44;97449.63;;;9.62;73.82
78170;BME280;67412;49.892;14.490;2023-05-24T05:56:09;97450.41;;;9.67;73.37
78170;BME280;67412;49.892;14.490;2023-05-24T05:58:35;97456.47;;;9.62;73.82
78170;BME280;67412;49.892;14.490;2023-05-24T06:01:00;97458.25;;;9.55;74.11
78170;BME280;67412;49.892;14.490;2023-05-24T06:03:26;97464.22;;;9.54;73.85
78170;BME280;67412;49.892;14.490;2023-05-24T06:05:51;97465.09;;;9.52;72.70
78170;BME280;67412;49.892;14.490;2023-05-24T06:08:17;97460.03;;;9.43;72.72
78170;BME280;67412;49.892;14.490;2023-05-24T06:10:42;97465.16;;;9.44;73.24
78170;BME280;67412;49.892;14.490;2023-05-24T06:13:07;97462.50;;;9.53;73.56
78170;BME280;67412;49.892;14.490;2023-05-24T06:15:32;97464.22;;;9.56;72.58
78170;BME280;67412;49.892;14.490;2023-05-24T06:17:59;97466.78;;;9.56;72.39
78170;BME280;67412;49.892;14.490;2023-05-24T06:20:25;97471.94;;;9.50;72.67
78170;BME280;67412;49.892;14.490;2023-05-24T06:22:50;97465.97;;;9.49;72.05
78170;BME280;67412;49.892;14.490;2023-05-24T06:25:16;97481.31;;;9.54;71.98
78170;BME280;67412;49.892;14.490;2023-05-24T06:27:43;97483.00;;;9.59;71.84
78170;BME280;67412;49.892;14.490;2023-05-24T06:30:09;97480.44;;;9.56;71.77
78170;BME280;67412;49.892;14.490;2023-05-24T06:32:34;97479.53;;;9.65;72.11
78170;BME280;67412;49.892;14.490;2023-05-24T06:35:00;97477.78;;;9.70;71.53
78170;BME280;67412;49.892;14.490;2023-05-24T06:37:25;97482.97;;;9.62;71.11
78170;BME280;67412;49.892;14.490;2023-05-24T06:39:50;97485.53;;;9.62;71.74
78170;BME280;67412;49.892;14.490;2023-05-24T06:42:16;97481.25;;;9.63;71.18
78170;BME280;67412;49.892;14.490;2023-05-24T06:44:41;97489.72;;;9.71;70.83
78170;BME280;67412;49.892;14.490;2023-05-24T06:47:06;97495.72;;;9.75;71.27
78170;BME280;67412;49.892;14.490;2023-05-24T06:49:33;97488.88;;;9.72;71.01
78170;BME280;67412;49.892;14.490;2023-05-24T06:51:58;97489.72;;;9.74;71.37
78170;BME280;67412;49.892;14.490;2023-05-24T06:54:24;97492.25;;;9.76;71.13
78170;BME280;67412;49.892;14.490;2023-05-24T06:56:49;97496.66;;;9.63;70.83
78170;BME280;67412;49.892;14.490;2023-05-24T06:59:15;97497.41;;;9.71;71.53
78170;BME280;67412;49.892;14.490;2023-05-24T07:01:40;97494.03;;;9.67;71.54
78170;BME280;67412;49.892;14.490;2023-05-24T07:04:07;97497.50;;;9.60;70.84
78170;BME280;67412;49.892;14.490;2023-05-24T07:06:33;97499.19;;;9.66;71.57
78170;BME280;67412;49.892;14.490;2023-05-24T07:08:58;97496.41;;;9.90;71.15
78170;BME280;67412;49.892;14.490;2023-05-24T07:11:26;97497.25;;;9.91;70.71
78170;BME280;67412;49.892;14.490;2023-05-24T07:13:51;97499.69;;;10.07;70.50
78170;BME280;67412;49.892;14.490;2023-05-24T07:16:16;97510.78;;;10.11;70.63
78170;BME280;67412;49.892;14.490;2023-05-24T07:18:42;97510.97;;;9.87;70.22
78170;BME280;67412;49.892;14.490;2023-05-24T07:21:07;97512.63;;;9.97;70.36
78170;BME280;67412;49.892;14.490;2023-05-24T07:23:33;97506.59;;;9.99;69.79
78170;BME280;67412;49.892;14.490;2023-05-24T07:25:58;97511.88;;;9.84;69.70
78170;BME280;67412;49.892;14.490;2023-05-24T07:28:23;97507.56;;;9.88;69.73
78170;BME280;67412;49.892;14.490;2023-05-24T07:30:49;97512.63;;;9.97;69.05
78170;BME280;67412;49.892;14.490;2023-05-24T07:33:14;97502.28;;;10.03;69.34
78170;BME280;67412;49.892;14.490;2023-05-24T07:35:40;97507.50;;;9.97;69.15
78170;BME280;67412;49.892;14.490;2023-05-24T07:38:06;97510.91;;;9.94;69.56
78170;BME280;67412;49.892;14.490;2023-05-24T07:40:31;97519.41;;;10.04;69.58
78170;BME280;67412;49.892;14.490;2023-05-24T07:42:57;97506.75;;;9.80;69.24
78170;BME280;67412;49.892;14.490;2023-05-24T07:45:22;97513.59;;;9.81;69.99
78170;BME280;67412;49.892;14.490;2023-05-24T07:47:47;97516.16;;;9.85;70.78
78170;BME280;67412;49.892;14.490;2023-05-24T07:50:13;97513.50;;;9.93;68.74
78170;BME280;67412;49.892;14.490;2023-05-24T07:52:38;97519.66;;;9.72;69.11
78170;BME280;67412;49.892;14.490;2023-05-24T07:55:04;97520.34;;;9.91;68.76
78170;BME280;67412;49.892;14.490;2023-05-24T07:57:30;97517.84;;;9.83;68.38
78170;BME280;67412;49.892;14.490;2023-05-24T07:59:55;97520.41;;;9.83;68.38
78170;BME280;67412;49.892;14.490;2023-05-24T08:02:20;97522.88;;;9.97;68.59
78170;BME280;67412;49.892;14.490;2023-05-24T08:04:46;97516.88;;;9.98;67.30
78170;BME280;67412;49.892;14.490;2023-05-24T08:07:12;97521.91;;;10.10;67.66
78170;BME280;67412;49.892;14.490;2023-05-24T08:09:38;97524.34;;;10.25;67.46
78170;BME280;67412;49.892;14.490;2023-05-24T08:12:05;97528.72;;;10.17;67.08
78170;BME280;67412;49.892;14.490;2023-05-24T08:14:31;97521.09;;;10.05;67.33
78170;BME280;67412;49.892;14.490;2023-05-24T08:16:56;97536.56;;;9.94;67.02
78170;BME280;67412;49.892;14.490;2023-05-24T08:19:22;97528.84;;;9.99;67.58
78170;BME280;67412;49.892;14.490;2023-05-24T08:21:47;97529.75;;;9.92;67.41
78170;BME280;67412;49.892;14.490;2023-05-24T08:24:13;97534.03;;;9.90;67.34
78170;BME280;67412;49.892;14.490;2023-05-24T08:26:38;97540.03;;;9.90;68.03
78170;BME280;67412;49.892;14.490;2023-05-24T08:29:04;97540.00;;;9.95;67.95
78170;BME280;67412;49.892;14.490;2023-05-24T08:31:30;97546.91;;;9.87;67.78
78170;BME280;67412;49.892;14.490;2023-05-24T08:33:57;97541.75;;;9.93;67.88
78170;BME280;67412;49.892;14.490;2023-05-24T08:36:22;97539.66;;;10.36;67.35
78170;BME280;67412;49.892;14.490;2023-05-24T08:38:47;97543.69;;;10.59;66.16
78170;BME280;67412;49.892;14.490;2023-05-24T08:41:12;97547.91;;;10.68;64.58
78170;BME280;67412;49.892;14.490;2023-05-24T08:43:38;97550.34;;;10.79;64.01
78170;BME280;67412;49.892;14.490;2023-05-24T08:46:04;97540.84;;;10.85;64.38
78170;BME280;67412;49.892;14.490;2023-05-24T08:48:30;97540.47;;;11.14;64.45
78170;BME280;67412;49.892;14.490;2023-05-24T08:50:57;97544.22;;;10.90;63.25
78170;BME280;67412;49.892;14.490;2023-05-24T08:53:22;97541.88;;;11.39;63.83
78170;BME280;67412;49.892;14.490;2023-05-24T08:55:49;97541.13;;;11.30;63.04
78170;BME280;67412;49.892;14.490;2023-05-24T08:58:17;97536.53;;;11.51;63.26
78170;BME280;67412;49.892;14.490;2023-05-24T09:00:43;97546.50;;;11.76;61.23
78170;BME280;67412;49.892;14.490;2023-05-24T09:03:09;97542.47;;;12.11;61.70
78170;BME280;67412;49.892;14.490;2023-05-24T09:05:35;97539.22;;;12.02;60.80
78170;BME280;67412;49.892;14.490;2023-05-24T09:08:02;97543.56;;;11.97;61.16
78170;BME280;67412;49.892;14.490;2023-05-24T09:10:28;97548.59;;;12.04;61.25
78170;BME280;67412;49.892;14.490;2023-05-24T09:12:57;97548.41;;;12.17;60.90
78170;BME280;67412;49.892;14.490;2023-05-24T09:15:23;97556.50;;;11.95;61.21
78170;BME280;67412;49.892;14.490;2023-05-24T09:17:48;97554.84;;;11.90;62.23
78170;BME280;67412;49.892;14.490;2023-05-24T09:20:14;97549.56;;;11.99;60.87
78170;BME280;67412;49.892;14.490;2023-05-24T09:22:42;97549.50;;;12.02;60.12
78170;BME280;67412;49.892;14.490;2023-05-24T09:25:12;97547.25;;;12.34;59.88
78170;BME280;67412;49.892;14.490;2023-05-24T09:27:38;97548.06;;;12.36;60.25
78170;BME280;67412;49.892;14.490;2023-05-24T09:30:07;97554.75;;;12.46;59.41
78170;BME280;67412;49.892;14.490;2023-05-24T09:32:33;97548.66;;;12.96;58.54
78170;BME280;67412;49.892;14.490;2023-05-24T09:34:58;97542.94;;;13.24;58.27
78170;BME280;67412;49.892;14.490;2023-05-24T09:37:25;97551.19;;;13.41;58.09
78170;BME280;67412;49.892;14.490;2023-05-24T09:39:54;97548.69;;;12.49;59.03
78170;BME280;67412;49.892;14.490;2023-05-24T09:42:23;97554.31;;;12.71;57.79
78170;BME280;67412;49.892;14.490;2023-05-24T09:45:06;97554.19;;;13.21;59.13
78170;BME280;67412;49.892;14.490;2023-05-24T09:47:35;97550.47;;;12.90;58.29
78170;BME280;67412;49.892;14.490;2023-05-24T09:50:02;97552.47;;;12.77;58.00
78170;BME280;67412;49.892;14.490;2023-05-24T09:52:28;97556.34;;;12.98;58.08
78170;BME280;67412;49.892;14.490;2023-05-24T09:54:53;97548.69;;;13.36;57.93
78170;BME280;67412;49.892;14.490;2023-05-24T09:57:19;97542.09;;;13.62;56.84
78170;BME280;67412;49.892;14.490;2023-05-24T09:59:48;97557.38;;;13.34;56.44
78170;BME280;67412;49.892;14.490;2023-05-24T10:02:15;97543.38;;;13.44;56.91
78170;BME280;67412;49.892;14.490;2023-05-24T10:04:42;97546.94;;;13.77;55.96
78170;BME280;67412;49.892;14.490;2023-05-24T10:07:08;97552.31;;;13.29;56.51
78170;BME280;67412;49.892;14.490;2023-05-24T10:09:34;97558.91;;;12.98;57.44
78170;BME280;67412;49.892;14.490;2023-05-24T10:12:02;97552.09;;;12.95;57.46
78170;BME280;67412;49.892;14.490;2023-05-24T10:14:31;97552.69;;;13.11;56.61
78170;BME280;67412;49.892;14.490;2023-05-24T10:16:57;97554.47;;;13.49;57.07
78170;BME280;67412;49.892;14.490;2023-05-24T10:19:23;97554.94;;;13.65;55.99
78170;BME280;67412;49.892;14.490;2023-05-24T10:21:50;97555.81;;;13.27;55.03
78170;BME280;67412;49.892;14.490;2023-05-24T10:24:18;97561.47;;;13.81;54.99
78170;BME280;67412;49.892;14.490;2023-05-24T10:26:48;97557.19;;;13.80;55.33
78170;BME280;67412;49.892;14.490;2023-05-24T10:29:40;97555.44;;;13.80;54.91
78170;BME280;67412;49.892;14.490;2023-05-24T10:32:09;97550.06;;;14.59;54.32
78170;BME280;67412;49.892;14.490;2023-05-24T10:34:35;97555.50;;;14.49;53.14
78170;BME280;67412;49.892;14.490;2023-05-24T10:37:01;97560.41;;;14.59;53.63
78170;BME280;67412;49.892;14.490;2023-05-24T10:39:27;97564.53;;;13.98;52.65
78170;BME280;67412;49.892;14.490;2023-05-24T10:41:54;97563.16;;;13.82;54.40
78170;BME280;67412;49.892;14.490;2023-05-24T10:44:20;97561.53;;;13.78;53.59
78170;BME280;67412;49.892;14.490;2023-05-24T10:49:58;97558.59;;;13.93;53.30
78170;BME280;67412;49.892;14.490;2023-05-24T10:52:35;97558.06;;;14.16;54.42
78170;BME280;67412;49.892;14.490;2023-05-24T10:57:29;97561.75;;;13.30;55.31
78170;BME280;67412;49.892;14.490;2023-05-24T11:03:07;97563.34;;;14.46;53.34
78170;BME280;67412;49.892;14.490;2023-05-24T11:05:34;97555.91;;;14.97;51.50
78170;BME280;67412;49.892;14.490;2023-05-24T11:07:59;97561.91;;;14.69;52.75
78170;BME280;67412;49.892;14.490;2023-05-24T11:10:31;97568.56;;;14.43;54.37
78170;BME280;67412;49.892;14.490;2023-05-24T11:13:00;97566.38;;;13.54;54.24
78170;BME280;67412;49.892;14.490;2023-05-24T11:15:26;97563.44;;;14.07;54.08
78170;BME280;67412;49.892;14.490;2023-05-24T11:20:33;97567.88;;;15.02;51.11
78170;BME280;67412;49.892;14.490;2023-05-24T11:23:02;97562.69;;;15.03;52.51
78170;BME280;67412;49.892;14.490;2023-05-24T11:25:27;97562.41;;;15.12;51.54
78170;BME280;67412;49.892;14.490;2023-05-24T11:27:55;97567.84;;;15.91;50.20
78170;BME280;67412;49.892;14.490;2023-05-24T11:30:22;97573.25;;;15.83;49.06
78170;BME280;67412;49.892;14.490;2023-05-24T11:32:48;97561.50;;;15.73;48.12
78170;BME280;67412;49.892;14.490;2023-05-24T11:35:14;97568.34;;;14.85;50.11
78170;BME280;67412;49.892;14.490;2023-05-24T11:37:40;97559.28;;;15.30;53.13
78170;BME280;67412;49.892;14.490;2023-05-24T11:40:07;97555.88;;;14.99;50.75
78170;BME280;67412;49.892;14.490;2023-05-24T11:42:34;97546.88;;;15.12;50.30
78170;BME280;67412;49.892;14.490;2023-05-24T11:45:02;97546.59;;;14.61;51.60
78170;BME280;67412;49.892;14.490;2023-05-24T11:47:28;97546.03;;;14.50;51.10
78170;BME280;67412;49.892;14.490;2023-05-24T11:49:54;97552.06;;;15.12;50.58
78170;BME280;67412;49.892;14.490;2023-05-24T11:52:19;97564.06;;;14.84;51.13
78170;BME280;67412;49.892;14.490;2023-05-24T11:54:45;97562.25;;;15.47;50.54
78170;BME280;67412;49.892;14.490;2023-05-24T11:57:11;97558.16;;;14.79;50.69
78170;BME280;67412;49.892;14.490;2023-05-24T11:59:36;97560.09;;;14.38;52.04
78170;BME280;67412;49.892;14.490;2023-05-24T12:02:05;97569.06;;;14.90;51.42
78170;BME280;67412;49.892;14.490;2023-05-24T12:04:32;97570.25;;;14.78;51.06
78170;BME280;67412;49.892;14.490;2023-05-24T12:06:59;97565.66;;;15.19;50.83
78170;BME280;67412;49.892;14.490;2023-05-24T12:09:25;97569.78;;;15.84;48.57
78170;BME280;67412;49.892;14.490;2023-05-24T12:11:51;97560.44;;;16.59;47.89
78170;BME280;67412;49.892;14.490;2023-05-24T12:14:19;97559.47;;;16.62;48.06
78170;BME280;67412;49.892;14.490;2023-05-24T12:16:48;97559.84;;;16.50;46.37
78170;BME280;67412;49.892;14.490;2023-05-24T12:21:43;97545.78;;;15.21;50.03
78170;BME280;67412;49.892;14.490;2023-05-24T12:24:10;97552.66;;;14.91;50.67
78170;BME280;67412;49.892;14.490;2023-05-24T12:26:39;97552.91;;;15.13;50.55
78170;BME280;67412;49.892;14.490;2023-05-24T12:29:05;97551.94;;;14.86;50.16
78170;BME280;67412;49.892;14.490;2023-05-24T12:31:31;97546.22;;;15.35;50.14
78170;BME280;67412;49.892;14.490;2023-05-24T12:33:56;97555.19;;;15.82;47.76
78170;BME280;67412;49.892;14.490;2023-05-24T12:36:22;97551.09;;;16.01;49.74
78170;BME280;67412;49.892;14.490;2023-05-24T12:38:47;97553.44;;;16.35;47.90
78170;BME280;67412;49.892;14.490;2023-05-24T12:41:12;97554.25;;;16.11;47.38
78170;BME280;67412;49.892;14.490;2023-05-24T12:43:38;97550.75;;;16.64;47.05
78170;BME280;67412;49.892;14.490;2023-05-24T12:46:04;97545.66;;;16.35;48.21
78170;BME280;67412;49.892;14.490;2023-05-24T12:48:30;97539.47;;;16.39;46.61
78170;BME280;67412;49.892;14.490;2023-05-24T12:50:56;97530.28;;;16.30;46.98
78170;BME280;67412;49.892;14.490;2023-05-24T12:53:21;97534.97;;;16.70;44.79
78170;BME280;67412;49.892;14.490;2023-05-24T12:55:48;97533.59;;;16.60;45.24
78170;BME280;67412;49.892;14.490;2023-05-24T12:58:15;97538.16;;;16.52;46.26
78170;BME280;67412;49.892;14.490;2023-05-24T13:00:41;97533.44;;;16.38;43.80
78170;BME280;67412;49.892;14.490;2023-05-24T13:03:08;97533.53;;;16.86;44.92
78170;BME280;67412;49.892;14.490;2023-05-24T13:05:34;97533.44;;;17.13;44.91
78170;BME280;67412;49.892;14.490;2023-05-24T13:07:59;97524.31;;;17.48;43.49
78170;BME280;67412;49.892;14.490;2023-05-24T13:10:25;97530.16;;;17.08;42.46
78170;BME280;67412;49.892;14.490;2023-05-24T13:12:51;97529.53;;;17.01;42.97
78170;BME280;67412;49.892;14.490;2023-05-24T13:15:17;97527.59;;;17.29;42.38
78170;BME280;67412;49.892;14.490;2023-05-24T13:17:43;97521.97;;;17.18;42.26
78170;BME280;67412;49.892;14.490;2023-05-24T13:20:09;97523.72;;;17.18;42.05